Time;durP1;ratioP1;P1;durP2;ratioP2;P2;SDS_P1;SDS_P2;PMS_P1;PMS_P2;Temp;Humidity;BMP_temperature;BMP_pressure;BME280_temperature;BME280_humidity;BME280_pressure;Samples;Min_cycle;Max_cycle;Signal;HPM_P1;HPM_P2
2023/03/04 00:00:22;;;;;;;21.40;6.20;;;9.90;99.90;;;9.95;64.93;102597.47;5032954;28;20077;-69
2023/03/04 00:02:50;;;;;;;27.40;7.00;;;9.80;99.90;;;9.99;65.00;102604.63;5033156;28;20046;-69
2023/03/04 00:05:19;;;;;;;22.80;7.07;;;9.80;99.90;;;10.01;64.67;102602.91;5033057;28;20495;-70
2023/03/04 00:07:47;;;;;;;24.55;6.10;;;9.80;99.90;;;10.13;65.09;102612.03;5033077;28;20049;-70
2023/03/04 00:10:17;;;;;;;21.08;6.68;;;9.80;99.90;;;10.05;64.63;102606.53;5033840;28;20045;-69
2023/03/04 00:12:46;;;;;;;21.50;6.03;;;9.90;99.90;;;10.07;64.95;102612.75;5033208;28;20068;-69
2023/03/04 00:15:14;;;;;;;25.23;6.13;;;9.80;99.90;;;10.04;65.08;102607.38;5032999;28;20508;-69
2023/03/04 00:17:44;;;;;;;22.50;6.55;;;9.80;99.90;;;10.06;65.14;102605.69;5033257;28;20049;-69
2023/03/04 00:20:14;;;;;;;23.00;6.28;;;9.80;99.90;;;9.96;65.22;102583.41;5033306;28;20041;-69
2023/03/04 00:22:42;;;;;;;21.15;6.28;;;9.80;99.90;;;10.08;65.30;102608.34;5032991;28;20132;-69
2023/03/04 00:25:10;;;;;;;16.52;6.00;;;9.80;99.90;;;10.10;65.16;102601.41;5032684;28;20043;-69
2023/03/04 00:27:40;;;;;;;21.05;5.75;;;9.80;99.90;;;10.08;65.14;102603.97;5033027;28;20052;-69
2023/03/04 00:30:11;;;;;;;20.80;5.88;;;9.80;99.90;;;10.08;65.67;102616.28;5031759;28;20558;-69
2023/03/04 00:32:39;;;;;;;20.17;6.70;;;9.90;99.90;;;10.06;65.91;102599.50;5033118;28;20064;-69
2023/03/04 00:35:08;;;;;;;18.52;6.43;;;9.80;99.90;;;10.00;65.53;102601.13;5032949;28;20084;-69
2023/03/04 00:37:37;;;;;;;20.38;6.13;;;9.90;99.90;;;10.06;65.84;102604.78;5031605;28;20045;-69
2023/03/04 00:40:07;;;;;;;23.90;6.35;;;9.90;99.90;;;10.10;65.92;102611.97;5031382;28;20084;-69
2023/03/04 00:42:35;;;;;;;19.50;5.47;;;9.90;99.90;;;9.95;66.23;102591.25;5032683;28;20048;-69
2023/03/04 00:45:07;;;;;;;18.30;6.45;;;9.80;99.90;;;9.90;66.20;102577.06;5032668;28;20054;-69
2023/03/04 00:47:35;;;;;;;20.75;6.18;;;9.80;99.90;;;10.16;65.63;102601.56;5032965;28;20060;-69
2023/03/04 00:50:04;;;;;;;21.15;6.45;;;9.90;99.90;;;9.84;65.93;102601.59;5032844;28;20048;-69
2023/03/04 00:52:33;;;;;;;21.70;5.82;;;9.70;99.90;;;9.94;65.69;102595.69;5031498;28;20046;-69
2023/03/04 00:55:01;;;;;;;19.85;5.88;;;9.70;99.90;;;9.86;65.49;102586.66;5031411;28;20056;-69
2023/03/04 00:57:30;;;;;;;20.33;5.63;;;9.70;99.90;;;9.86;65.62;102591.94;5032678;28;20116;-69
2023/03/04 00:59:58;;;;;;;22.23;6.45;;;9.70;99.90;;;9.81;66.36;102595.31;5032676;28;20052;-69
2023/03/04 01:02:28;;;;;;;19.27;5.55;;;9.60;99.90;;;9.78;66.10;102593.50;5032697;28;20042;-69
2023/03/04 01:04:56;;;;;;;16.40;5.50;;;9.60;99.90;;;9.73;66.71;102595.13;5032678;28;20069;-69
2023/03/04 01:07:24;;;;;;;21.77;6.22;;;9.60;99.90;;;9.87;66.44;102591.06;5032649;28;20052;-69
2023/03/04 01:09:53;;;;;;;22.33;6.10;;;9.60;99.90;;;9.86;66.59;102594.59;5032587;28;20041;-69
2023/03/04 01:12:21;;;;;;;15.63;5.45;;;9.60;99.90;;;9.83;66.96;102594.50;5033817;28;20456;-69
2023/03/04 01:14:50;;;;;;;16.05;5.57;;;9.60;99.90;;;9.86;66.83;102597.22;5036679;28;20049;-69
2023/03/04 01:17:18;;;;;;;24.10;6.07;;;9.70;99.90;;;9.73;66.41;102600.41;5036328;28;20049;-70
2023/03/04 01:19:49;;;;;;;25.55;6.13;;;9.70;99.90;;;9.75;66.87;102595.16;5035485;28;20088;-69
2023/03/04 01:22:17;;;;;;;23.35;6.40;;;9.50;99.90;;;9.80;66.43;102586.50;5035240;28;20342;-69
2023/03/04 01:24:48;;;;;;;;;;;9.60;99.90;;;9.83;66.42;102594.50;5037006;28;20152;-69
2023/03/04 01:27:16;;;;;;;21.13;6.03;;;9.70;99.90;;;9.77;66.52;102588.16;5036371;28;20028;-69
2023/03/04 01:29:44;;;;;;;19.10;6.22;;;9.60;99.90;;;9.80;66.81;102583.84;5036342;28;20096;-69
2023/03/04 01:32:13;;;;;;;23.67;5.90;;;9.60;99.90;;;9.82;66.08;102581.25;5036319;28;20053;-69
2023/03/04 01:34:42;;;;;;;18.52;5.97;;;9.60;99.90;;;9.85;66.40;102590.13;5035108;28;20499;-69
2023/03/04 01:37:13;;;;;;;19.20;5.13;;;9.60;99.90;;;9.72;66.68;102574.81;5036455;28;20421;-69
2023/03/04 01:39:42;;;;;;;20.50;5.50;;;9.50;99.90;;;9.82;66.40;102576.84;5036084;28;20044;-69
2023/03/04 01:42:18;;;;;;;18.15;5.93;;;9.60;99.90;;;9.84;66.53;102580.44;5036587;28;20051;-69
2023/03/04 01:44:48;;;;;;;19.33;5.65;;;9.60;99.90;;;9.36;67.02;102572.94;5034573;28;20053;-69
2023/03/04 01:47:17;;;;;;;19.40;5.50;;;9.30;99.90;;;9.54;67.02;102570.81;5036018;28;20476;-69
2023/03/04 01:49:47;;;;;;;19.58;5.78;;;9.30;99.90;;;9.67;66.39;102559.72;5036014;28;20083;-69
2023/03/04 01:52:17;;;;;;;19.15;5.78;;;9.50;99.90;;;9.58;66.77;102559.47;5051301;28;20068;-69
2023/03/04 01:54:46;;;;;;;20.15;5.80;;;9.40;99.90;;;9.59;66.36;102564.78;5051229;28;20083;-69
2023/03/04 01:57:19;;;;;;;16.85;5.68;;;9.40;99.90;;;9.71;65.90;102556.28;5034569;28;20069;-69
2023/03/04 02:00:17;;;;;;;24.25;5.47;;;9.50;99.90;;;9.69;65.53;102543.06;5034533;28;20103;-69
2023/03/04 02:02:46;;;;;;;14.25;5.45;;;9.50;99.90;;;9.78;65.37;102551.22;5035553;28;20508;-69
2023/03/04 02:05:14;;;;;;;16.63;5.60;;;9.60;99.90;;;9.76;65.55;102549.38;5035711;28;20057;-69
2023/03/04 02:07:43;;;;;;;22.42;5.03;;;9.50;99.90;;;9.76;65.56;102552.91;5034296;28;20099;-69
2023/03/04 02:10:13;;;;;;;18.38;5.53;;;9.50;99.90;;;9.63;65.60;102545.53;5035623;28;20128;-69
2023/03/04 02:12:41;;;;;;;18.75;6.05;;;9.40;99.90;;;9.68;65.69;102517.47;5035279;28;20124;-69
2023/03/04 02:15:10;;;;;;;18.67;5.65;;;9.50;99.90;;;9.79;65.33;102531.84;5035505;28;20112;-69
2023/03/04 02:17:40;;;;;;;17.30;5.38;;;9.60;99.90;;;9.76;64.76;102531.78;5035494;28;20042;-69
2023/03/04 02:20:28;;;;;;;24.50;6.50;;;9.60;99.90;;;9.77;65.13;102523.00;5035492;28;20399;-69
2023/03/04 02:23:06;;;;;;;25.02;5.25;;;9.50;99.90;;;9.71;65.02;102527.22;5035089;28;20485;-69
2023/03/04 02:25:47;;;;;;;17.08;5.20;;;9.60;99.90;;;9.84;65.30;102527.56;5035345;28;20545;-69
2023/03/04 02:28:17;;;;;;;22.77;5.95;;;9.60;99.90;;;9.82;65.43;102524.00;5034050;28;20103;-69
2023/03/04 02:30:46;;;;;;;20.40;6.23;;;9.60;99.90;;;9.91;65.33;102518.94;5034031;28;20081;-69
2023/03/04 02:33:18;;;;;;;23.45;5.85;;;9.60;99.90;;;9.85;65.08;102504.69;5033973;28;20041;-69
2023/03/04 02:35:46;;;;;;;;;;;9.70;99.90;;;9.87;65.56;102514.44;5050889;28;20049;-69
2023/03/04 02:38:15;;;;;;;13.98;5.57;;;9.70;99.90;;;9.76;65.25;102507.09;5033753;28;19960;-69
2023/03/04 02:40:48;;;;;;;13.65;5.85;;;9.70;99.90;;;9.83;65.17;102503.75;5035298;28;20095;-69
2023/03/04 02:43:18;;;;;;;18.40;6.07;;;9.60;99.90;;;9.93;65.23;102509.28;5034830;28;20072;-69
2023/03/04 02:45:49;;;;;;;17.77;5.03;;;9.70;99.90;;;9.74;65.24;102501.78;5033368;28;20115;-70
2023/03/04 02:48:22;;;;;;;15.63;5.68;;;9.60;99.90;;;9.66;64.88;102500.69;5033602;28;20053;-69
2023/03/04 02:50:53;;;;;;;16.20;5.63;;;9.50;99.90;;;9.68;65.06;102506.91;5034827;28;20049;-69
2023/03/04 02:53:24;;;;;;;14.55;5.93;;;9.50;99.90;;;9.44;65.76;102503.63;5034874;28;20095;-69
2023/03/04 02:55:53;;;;;;;22.10;5.70;;;9.30;99.90;;;9.54;65.85;102505.63;5033572;28;20053;-69
2023/03/04 02:58:25;;;;;;;23.42;6.30;;;9.30;99.90;;;9.54;65.13;102503.00;5033219;28;20045;-69
2023/03/04 03:00:53;;;;;;;20.70;5.77;;;9.30;99.90;;;9.57;65.60;102505.75;5033403;28;20049;-69
2023/03/04 03:03:22;;;;;;;23.05;5.72;;;9.40;99.90;;;9.57;65.42;102508.38;5034693;28;20045;-69
2023/03/04 03:05:50;;;;;;;18.27;5.22;;;9.40;99.90;;;9.49;65.10;102498.47;5033309;28;20045;-69
2023/03/04 03:08:18;;;;;;;21.38;5.85;;;9.30;99.90;;;9.52;65.16;102506.47;5034702;28;20045;-69
2023/03/04 03:10:47;;;;;;;17.77;6.10;;;9.30;99.90;;;9.56;65.06;102506.56;5034523;28;20072;-69
2023/03/04 03:13:17;;;;;;;18.50;5.22;;;9.30;99.90;;;9.55;65.38;102503.91;5033144;28;20377;-69
2023/03/04 03:15:47;;;;;;;19.73;5.53;;;9.30;99.90;;;9.59;65.26;102505.78;5033017;28;20041;-69
2023/03/04 03:18:17;;;;;;;16.90;5.63;;;9.30;99.90;;;9.57;65.31;102505.75;5034621;28;20045;-69
2023/03/04 03:20:46;;;;;;;23.35;6.55;;;9.40;99.90;;;9.48;65.25;102509.88;5034298;28;20034;-68
2023/03/04 03:23:16;;;;;;;17.60;5.93;;;9.30;99.90;;;9.54;65.59;102505.63;5032864;28;20046;-69
2023/03/04 03:25:45;;;;;;;17.35;5.28;;;9.40;99.90;;;9.43;65.19;102493.91;5033914;28;20536;-69
2023/03/04 03:28:13;;;;;;;16.17;5.10;;;9.30;99.90;;;9.48;65.36;102504.59;5033802;28;20124;-70
2023/03/04 03:30:42;;;;;;;13.20;5.38;;;9.20;99.90;;;9.54;64.91;102497.72;5034326;28;20049;-69
2023/03/04 03:33:11;;;;;;;12.35;4.97;;;9.30;99.90;;;9.42;64.85;102497.44;5032831;28;20045;-69
2023/03/04 03:35:40;;;;;;;19.27;5.68;;;9.20;99.90;;;9.63;64.74;102505.00;5032331;28;20377;-69
2023/03/04 03:38:08;;;;;;;20.77;5.88;;;9.40;99.90;;;9.62;64.91;102490.88;5032420;28;20093;-69
2023/03/04 03:40:38;;;;;;;14.98;5.47;;;9.30;99.90;;;9.60;64.57;102491.72;5033703;28;20044;-69
2023/03/04 03:43:06;;;;;;;17.38;6.03;;;9.30;99.90;;;9.36;65.14;102494.63;5033608;28;20041;-69
2023/03/04 03:45:35;;;;;;;16.90;5.38;;;9.20;99.90;;;9.52;65.16;102498.56;5033554;28;20049;-69
2023/03/04 03:48:04;;;;;;;20.02;6.03;;;9.20;99.90;;;9.60;64.65;102489.94;5033834;28;20111;-69
2023/03/04 03:50:33;;;;;;;20.45;5.57;;;9.30;99.90;;;9.60;64.88;102497.00;5033463;28;20038;-69
2023/03/04 03:53:02;;;;;;;18.40;5.50;;;9.40;99.90;;;9.68;65.03;102491.03;5033745;28;20523;-69
2023/03/04 03:55:30;;;;;;;17.05;5.38;;;9.50;99.90;;;9.56;65.01;102490.72;5033445;28;20132;-69
2023/03/04 03:57:59;;;;;;;15.75;5.38;;;9.40;99.90;;;9.40;66.08;102496.50;5033872;28;20056;-69
2023/03/04 04:00:27;;;;;;;19.52;6.05;;;9.20;99.90;;;9.53;65.49;102501.22;5033331;28;20099;-69
2023/03/04 04:02:57;;;;;;;21.65;5.45;;;9.20;99.90;;;9.51;65.65;102487.09;5033732;28;20392;-69
2023/03/04 04:05:26;;;;;;;13.80;5.20;;;9.30;99.90;;;9.57;65.88;102500.47;5033444;28;20457;-69
2023/03/04 04:07:55;;;;;;;16.52;5.50;;;9.30;99.90;;;9.54;66.81;102505.63;5033458;28;20045;-69
2023/03/04 04:10:23;;;;;;;16.80;5.47;;;9.30;99.90;;;9.25;68.06;102503.09;5033457;28;20046;-69
2023/03/04 04:12:52;;;;;;;17.30;5.72;;;9.10;99.90;;;9.42;67.89;102499.16;5033060;28;20041;-69
2023/03/04 04:15:20;;;;;;;20.05;5.57;;;9.10;99.90;;;9.60;67.59;102497.00;5032989;28;20045;-69
2023/03/04 04:17:49;;;;;;;19.70;5.32;;;9.30;99.90;;;9.56;67.90;102496.00;5033490;28;20045;-69
2023/03/04 04:20:17;;;;;;;15.93;5.45;;;9.30;99.90;;;9.60;67.67;102491.72;5031949;28;20092;-69
2023/03/04 04:22:46;;;;;;;15.70;5.03;;;9.40;99.90;;;9.40;68.51;102492.94;5032993;28;20076;-69
2023/03/04 04:25:16;;;;;;;10.15;4.35;;;9.20;99.90;;;9.35;69.32;102495.44;5031805;28;20088;-69
2023/03/04 04:27:44;;;;;;;14.65;4.50;;;9.10;99.90;;;9.46;69.48;102491.38;5032014;28;20045;-69
2023/03/04 04:30:13;;;;;;;17.50;5.15;;;9.20;99.90;;;9.55;68.91;102494.25;5033064;28;20038;-69
2023/03/04 04:32:42;;;;;;;10.32;4.47;;;9.30;99.90;;;9.29;69.43;102486.50;5032807;28;20045;-69
2023/03/04 04:35:10;;;;;;;15.57;4.93;;;9.20;99.90;;;9.40;70.40;102496.50;5032728;28;20092;-69
2023/03/04 04:37:38;;;;;;;14.18;5.18;;;9.10;99.90;;;9.51;69.98;102494.09;5033242;28;20044;-69
2023/03/04 04:40:08;;;;;;;16.77;5.25;;;9.20;99.90;;;9.55;70.35;102495.97;5032666;28;20515;-69
2023/03/04 04:42:38;;;;;;;11.50;4.77;;;9.30;99.90;;;9.60;70.24;102502.28;5033181;28;20049;-69
2023/03/04 04:45:08;;;;;;;14.03;5.13;;;9.30;99.90;;;9.53;70.19;102497.69;5032861;28;20774;-69
2023/03/04 04:47:37;;;;;;;15.55;5.53;;;9.30;99.90;;;9.50;69.25;102501.16;5033157;28;20048;-69
2023/03/04 04:50:07;;;;;;;16.52;5.40;;;9.30;99.90;;;9.45;69.45;102500.13;5033049;28;20507;-69
2023/03/04 04:52:35;;;;;;;17.15;4.90;;;9.20;99.90;;;9.56;69.38;102497.78;5032553;28;20051;-69
2023/03/04 04:55:05;;;;;;;18.98;5.38;;;9.30;99.90;;;9.65;69.33;102500.66;5032820;28;20045;-69
2023/03/04 04:57:33;;;;;;;16.63;5.60;;;9.40;99.90;;;9.57;68.75;102489.00;5032794;28;20041;-69
2023/03/04 05:00:05;;;;;;;14.02;5.45;;;9.40;99.90;;;9.59;68.57;102506.66;5032481;28;20038;-69
2023/03/04 05:02:35;;;;;;;14.32;4.82;;;9.40;99.90;;;9.61;68.53;102507.59;5032781;28;20480;-69
2023/03/04 05:05:04;;;;;;;11.80;4.90;;;9.40;99.90;;;9.68;68.31;102506.91;5031368;28;20148;-69
2023/03/04 05:07:32;;;;;;;19.90;6.13;;;9.40;99.90;;;9.69;67.64;102498.13;5032278;28;20061;-69
2023/03/04 05:10:00;;;;;;;21.05;5.47;;;9.50;99.90;;;9.74;68.10;102506.16;5032587;28;20111;-69
2023/03/04 05:12:29;;;;;;;18.73;5.82;;;9.50;99.90;;;9.63;67.82;102503.25;5032390;28;20048;-69
2023/03/04 05:14:57;;;;;;;15.48;4.70;;;9.40;99.90;;;9.71;67.30;102509.63;5032669;28;20049;-69
2023/03/04 05:17:27;;;;;;;15.45;5.50;;;9.50;99.90;;;9.73;67.38;102507.94;5032601;28;20069;-69
2023/03/04 05:19:55;;;;;;;15.60;5.47;;;9.50;99.90;;;9.67;67.54;102498.94;5031318;28;20072;-69
2023/03/04 05:22:23;;;;;;;15.05;5.85;;;9.50;99.90;;;9.74;67.54;102501.78;5032297;28;20037;-69
2023/03/04 05:24:52;;;;;;;18.33;5.93;;;9.50;99.90;;;9.69;67.91;102502.50;5032787;28;20077;-69
2023/03/04 05:27:20;;;;;;;21.02;5.88;;;9.50;99.90;;;9.63;68.21;102507.63;5032173;28;20041;-69
2023/03/04 05:29:48;;;;;;;16.00;5.25;;;9.40;99.90;;;9.68;68.49;102503.34;5032463;28;20049;-69
2023/03/04 05:32:16;;;;;;;16.60;5.35;;;9.40;99.90;;;9.66;68.85;102494.50;5032408;28;20042;-69
2023/03/04 05:34:46;;;;;;;16.20;5.68;;;9.50;99.90;;;9.66;69.25;102498.03;5032141;28;20050;-69
2023/03/04 05:37:14;;;;;;;21.02;5.68;;;9.50;99.90;;;9.70;69.37;102499.91;5031136;28;20037;-69
2023/03/04 05:39:43;;;;;;;12.65;4.90;;;9.50;99.90;;;9.64;69.89;102501.53;5032320;28;20049;-69
2023/03/04 05:42:11;;;;;;;15.90;5.03;;;9.50;99.90;;;9.52;69.67;102499.47;5032074;28;20045;-69
2023/03/04 05:44:39;;;;;;;13.55;5.10;;;9.40;99.90;;;9.61;69.67;102498.78;5032040;28;20069;-69
2023/03/04 05:47:09;;;;;;;13.13;5.07;;;9.40;99.90;;;9.63;69.79;102500.63;5032257;28;20107;-69
2023/03/04 05:49:37;;;;;;;15.13;4.95;;;9.40;99.90;;;9.57;69.53;102500.47;5031894;28;20045;-69
2023/03/04 05:52:07;;;;;;;15.85;5.82;;;9.40;99.90;;;9.59;68.80;102492.56;5031999;28;20053;-69
2023/03/04 05:54:35;;;;;;;14.65;5.20;;;9.40;99.90;;;9.25;69.69;102490.81;5030952;28;20088;-69
2023/03/04 05:57:03;;;;;;;17.15;5.10;;;9.10;99.90;;;9.47;69.56;102489.59;5032470;28;20135;-69
2023/03/04 05:59:32;;;;;;;20.73;5.55;;;9.20;99.90;;;9.47;69.30;102479.94;5034767;28;20403;-69
2023/03/04 06:02:00;;;;;;;23.55;5.65;;;9.20;99.90;;;9.41;68.79;102484.16;5035474;28;20051;-69
2023/03/04 06:04:28;;;;;;;16.35;5.47;;;9.10;99.90;;;9.47;68.61;102485.22;5035457;28;20042;-69
2023/03/04 06:06:57;;;;;;;16.20;5.70;;;9.20;99.90;;;9.45;68.61;102489.56;5035454;28;20042;-69
2023/03/04 06:09:26;;;;;;;12.98;5.18;;;9.30;99.90;;;9.53;68.64;102485.38;5035271;28;20044;-69
2023/03/04 06:11:55;;;;;;;17.23;5.50;;;9.40;99.90;;;9.44;69.52;102490.44;5035360;28;20461;-69
2023/03/04 06:14:23;;;;;;;18.95;5.28;;;9.30;99.90;;;9.44;69.52;102492.16;5035538;28;20290;-69
2023/03/04 06:16:51;;;;;;;15.80;5.05;;;9.30;99.90;;;9.42;70.20;102497.44;5035410;28;20049;-69
2023/03/04 06:19:20;;;;;;;12.95;5.05;;;9.30;99.90;;;9.07;72.01;102495.56;5035207;28;20428;-69
2023/03/04 06:21:48;;;;;;;16.80;5.53;;;8.90;99.90;;;9.12;72.81;102491.31;5035158;28;20044;-69
2023/03/04 06:24:17;;;;;;;11.35;5.65;;;8.90;99.90;;;9.21;74.07;102493.31;5035050;28;20041;-69
2023/03/04 06:26:46;;;;;;;15.50;5.18;;;9.00;99.90;;;9.27;75.00;102494.34;5035002;28;20044;-69
2023/03/04 06:29:15;;;;;;;18.73;5.77;;;9.10;99.90;;;9.23;75.50;102495.16;5034943;28;20041;-69
2023/03/04 06:31:43;;;;;;;12.95;4.28;;;9.10;99.90;;;9.30;75.52;102488.25;5034892;28;20037;-69
2023/03/04 06:34:11;;;;;;;15.35;5.43;;;9.10;99.90;;;9.05;76.63;102494.63;5034909;28;20042;-69
2023/03/04 06:36:40;;;;;;;11.93;4.82;;;8.90;99.90;;;9.17;77.06;102500.25;5034856;28;20155;-69
2023/03/04 06:39:08;;;;;;;15.25;5.93;;;9.00;99.90;;;9.19;76.63;102501.19;5033735;28;20058;-69
2023/03/04 06:41:37;;;;;;;15.30;5.22;;;9.00;99.90;;;9.25;76.97;102498.72;5034745;28;20091;-69
2023/03/04 06:44:07;;;;;;;15.95;4.75;;;9.00;99.90;;;9.13;76.35;102473.72;5034498;28;20053;-68
2023/03/04 06:46:36;;;;;;;13.45;5.38;;;9.10;99.90;;;9.26;76.81;102511.06;5034798;28;20124;-69
2023/03/04 06:49:04;;;;;;;12.38;5.13;;;9.10;99.90;;;9.29;76.63;102518.19;5034561;28;20046;-69
2023/03/04 06:51:33;;;;;;;13.90;5.63;;;9.10;99.90;;;9.24;76.88;102512.75;5034891;28;20037;-69
2023/03/04 06:54:03;;;;;;;14.15;4.80;;;9.00;99.90;;;9.33;77.10;102514.78;5034661;28;20385;-69
2023/03/04 06:56:32;;;;;;;12.23;5.22;;;9.10;99.90;;;9.37;76.78;102499.03;5034515;28;20478;-69
2023/03/04 06:59:00;;;;;;;11.90;5.28;;;9.20;99.90;;;9.40;76.89;102520.25;5034436;28;20435;-69
2023/03/04 07:01:30;;;;;;;15.65;6.18;;;9.20;99.90;;;9.44;76.46;102526.50;5034448;28;20041;-69
2023/03/04 07:03:58;;;;;;;12.52;5.13;;;9.10;99.90;;;9.55;76.15;102531.22;5034730;28;20046;-69
2023/03/04 07:06:28;;;;;;;17.27;5.35;;;9.30;99.90;;;9.52;75.76;102523.22;5033003;28;20068;-69
2023/03/04 07:08:57;;;;;;;15.10;4.82;;;9.30;99.90;;;9.54;75.20;102521.50;5034046;28;20053;-69
2023/03/04 07:11:26;;;;;;;13.63;5.57;;;9.30;99.90;;;9.66;75.61;102527.09;5033744;28;20128;-69
2023/03/04 07:13:54;;;;;;;15.45;5.85;;;9.40;99.90;;;9.48;75.20;102526.63;5034100;28;20541;-69
2023/03/04 07:16:23;;;;;;;17.73;4.93;;;9.30;99.90;;;9.64;75.27;102530.59;5034382;28;20084;-69
2023/03/04 07:18:53;;;;;;;14.00;5.32;;;9.30;99.90;;;9.64;74.85;102530.59;5034043;28;20092;-69
2023/03/04 07:21:21;;;;;;;13.80;4.77;;;9.40;99.90;;;9.70;74.55;102525.44;5034127;28;20183;-69
2023/03/04 07:23:50;;;;;;;11.60;5.05;;;9.50;99.90;;;9.70;74.76;102533.34;5049569;28;20477;-69
2023/03/04 07:26:18;;;;;;;17.58;5.72;;;9.40;99.90;;;9.69;74.37;102540.41;5033906;28;20128;-69
2023/03/04 07:28:47;;;;;;;12.65;5.30;;;9.40;99.90;;;9.67;74.34;102538.56;5033779;28;20116;-69
2023/03/04 07:31:23;;;;;;;11.20;4.72;;;9.30;99.90;;;9.48;73.82;102509.88;5034253;28;20073;-69
2023/03/04 07:33:56;;;;;;;9.68;4.65;;;9.30;99.90;;;9.60;74.13;102544.56;5033560;28;20048;-71
2023/03/04 07:36:24;;;;;;;13.25;4.53;;;9.30;99.90;;;9.34;74.45;102524.47;5033966;28;20449;-67
2023/03/04 07:38:54;;;;;;;7.97;4.50;;;9.20;99.90;;;9.25;75.66;102550.63;5033651;28;20051;-66
2023/03/04 07:41:26;;;;;;;6.47;4.18;;;9.00;99.90;;;9.06;75.77;102517.53;5033749;28;20038;-67
2023/03/04 07:43:57;;;;;;;5.40;3.90;;;9.00;99.90;;;9.42;75.64;102555.53;5033948;28;20064;-70
2023/03/04 07:46:26;;;;;;;6.90;4.05;;;9.10;99.90;;;9.68;74.88;102549.16;5033495;28;20752;-69
2023/03/04 07:48:57;;;;;;;7.32;3.75;;;9.40;99.90;;;9.54;74.11;102561.13;5033477;28;20048;-69
2023/03/04 07:51:27;;;;;;;4.88;3.67;;;9.40;99.90;;;9.68;74.05;102580.88;5033645;28;20049;-70
2023/03/04 07:53:59;;;;;;;8.40;4.53;;;9.40;99.90;;;9.71;73.88;102565.13;5033447;28;20370;-69
2023/03/04 07:56:31;;;;;;;6.38;3.83;;;9.40;99.90;;;9.48;74.32;102547.78;5033455;28;20045;-70
2023/03/04 07:59:00;;;;;;;8.27;4.38;;;9.30;99.90;;;9.45;74.13;102537.09;5033363;28;20081;-70
2023/03/04 08:01:31;;;;;;;15.60;4.78;;;9.40;99.90;;;9.28;74.15;102467.09;5033285;28;20223;-68
2023/03/04 08:04:03;;;;;;;4.40;3.85;;;9.50;99.90;;;9.93;74.08;102567.44;5033075;28;20052;-69
2023/03/04 08:06:32;;;;;;;7.90;3.78;;;9.60;99.90;;;9.90;74.16;102593.81;5031888;28;20061;-69
2023/03/04 08:09:04;;;;;;;7.22;4.13;;;9.70;99.90;;;9.92;74.44;102578.00;5033039;28;20408;-68
2023/03/04 08:11:35;;;;;;;6.15;3.92;;;9.60;99.90;;;10.01;74.56;102596.72;5033635;28;20444;-71
2023/03/04 08:14:04;;;;;;;9.52;3.92;;;9.70;99.90;;;10.00;74.88;102595.84;5033134;28;20076;-71
2023/03/04 08:16:33;;;;;;;7.47;3.70;;;9.80;99.90;;;9.93;75.71;102542.75;5032876;28;20044;-71
2023/03/04 08:19:04;;;;;;;6.90;4.07;;;9.80;99.90;;;10.06;76.53;102563.38;5033229;28;20050;-71
2023/03/04 08:21:33;;;;;;;7.07;4.03;;;9.80;99.90;;;10.11;77.27;102561.75;5033003;28;20045;-70
2023/03/04 08:24:06;;;;;;;7.57;4.38;;;9.80;99.90;;;10.26;77.81;102566.53;5032837;28;20052;-70
2023/03/04 08:26:41;;;;;;;7.43;3.35;;;9.90;99.90;;;10.29;77.32;102561.31;5032869;28;20042;-70
2023/03/04 08:29:14;;;;;;;8.27;4.22;;;10.10;99.90;;;10.16;77.04;102568.06;5032722;28;20108;-70
2023/03/04 08:31:45;;;;;;;6.80;4.07;;;10.00;99.90;;;10.08;77.83;102564.31;5032998;28;20076;-69
2023/03/04 08:34:19;;;;;;;7.55;4.05;;;9.80;99.90;;;10.22;77.26;102564.69;5033113;28;20041;-70
2023/03/04 08:36:47;;;;;;;7.68;3.63;;;9.90;99.90;;;10.40;76.36;102563.34;5032942;28;20129;-68
2023/03/04 08:39:18;;;;;;;8.57;4.20;;;10.10;99.90;;;10.51;76.43;102559.19;5032944;28;20052;-70
2023/03/04 08:41:47;;;;;;;6.20;4.47;;;10.30;99.90;;;10.63;75.68;102566.53;5032549;28;20136;-71
2023/03/04 08:44:16;;;;;;;7.07;3.50;;;10.30;99.90;;;10.74;74.54;102560.59;5032732;28;20164;-70
2023/03/04 08:46:44;;;;;;;5.32;3.67;;;10.50;99.90;;;10.35;74.48;102569.41;5033174;28;20045;-70
2023/03/04 08:49:13;;;;;;;6.55;3.75;;;10.30;99.90;;;10.40;75.74;102570.38;5032362;28;20045;-71
2023/03/04 08:51:44;;;;;;;4.57;3.85;;;10.30;99.90;;;10.38;76.82;102569.47;5032391;28;20095;-71
2023/03/04 08:54:12;;;;;;;8.73;4.25;;;10.20;99.90;;;10.45;77.22;102568.75;5032628;28;20496;-70
2023/03/04 08:56:41;;;;;;;7.95;4.18;;;10.20;99.90;;;10.41;77.86;102561.63;5032958;28;20046;-72
2023/03/04 08:59:09;;;;;;;9.57;3.50;;;10.20;99.90;;;10.36;78.49;102556.19;5032485;28;20064;-69
2023/03/04 09:01:37;;;;;;;7.47;4.35;;;10.10;99.90;;;10.50;78.83;102553.88;5032385;28;20081;-70
2023/03/04 09:04:06;;;;;;;6.32;4.03;;;10.20;99.90;;;10.62;78.41;102562.09;5032392;28;20097;-70
2023/03/04 09:06:34;;;;;;;8.80;4.18;;;10.40;99.90;;;10.76;77.54;102556.25;5032964;28;20120;-69
2023/03/04 09:09:04;;;;;;;7.68;3.75;;;10.50;99.90;;;10.29;77.65;102554.28;5032232;28;20193;-70
2023/03/04 09:11:33;;;;;;;6.65;4.20;;;10.30;99.90;;;10.51;77.81;102553.91;5032320;28;20479;-69
2023/03/04 09:14:02;;;;;;;6.80;3.85;;;10.30;99.90;;;10.26;78.22;102551.53;5032151;28;20045;-69
2023/03/04 09:16:30;;;;;;;5.65;3.80;;;10.20;99.90;;;10.40;77.83;102547.47;5032647;28;20119;-69
2023/03/04 09:19:01;;;;;;;7.68;3.95;;;10.20;99.90;;;10.38;77.50;102508.63;5032422;28;20045;-69
2023/03/04 09:21:29;;;;;;;5.85;4.28;;;10.40;99.90;;;10.27;78.66;102548.06;5032416;28;20057;-69
2023/03/04 09:23:57;;;;;;;8.43;4.10;;;10.10;99.90;;;10.21;80.08;102554.94;5032085;28;20046;-69
2023/03/04 09:26:29;;;;;;;6.45;4.25;;;10.00;99.90;;;10.28;80.72;102544.53;5032304;28;20453;-69
2023/03/04 09:29:00;;;;;;;7.97;4.30;;;10.10;99.90;;;10.17;81.56;102546.06;5031036;28;20052;-69
2023/03/04 09:31:30;;;;;;;8.32;4.18;;;10.00;99.90;;;9.97;82.94;102558.75;5032003;28;20037;-69
2023/03/04 09:34:00;;;;;;;4.90;3.80;;;9.80;99.90;;;10.04;84.01;102550.09;5034562;28;20049;-70
2023/03/04 09:36:28;;;;;;;6.07;3.80;;;9.80;99.90;;;10.15;84.06;102557.44;5036050;28;20050;-67
2023/03/04 09:39:00;;;;;;;7.30;4.32;;;9.80;99.90;;;10.28;84.08;102544.53;5036232;28;20050;-71
2023/03/04 09:41:39;;;;;;;6.88;3.83;;;10.00;99.90;;;10.60;84.64;102548.84;5035954;28;20461;-71
2023/03/04 09:44:22;;;;;;;8.15;4.05;;;10.30;99.90;;;10.79;84.54;102550.13;5035837;28;20041;-71
2023/03/04 09:46:52;;;;;;;3.60;3.30;;;10.50;99.90;;;11.03;84.08;102555.97;5035774;28;20436;-71
2023/03/04 09:49:22;;;;;;;6.50;3.92;;;10.80;99.90;;;11.21;82.83;102553.66;5035751;28;20052;-71
2023/03/04 09:52:03;;;;;;;6.18;3.97;;;11.00;99.90;;;11.33;82.28;102555.66;5035939;28;20129;-72
2023/03/04 09:54:51;;;;;;;8.68;4.07;;;11.10;99.90;;;11.50;81.10;102548.91;5034088;28;20103;-72
2023/03/04 09:57:30;;;;;;;10.60;4.93;;;11.30;99.90;;;11.19;80.53;102541.28;5035608;28;20099;-71
2023/03/04 10:00:18;;;;;;;11.18;4.63;;;11.10;99.90;;;10.63;81.69;102545.34;5036074;28;20473;-72
2023/03/04 10:03:06;;;;;;;7.30;4.35;;;10.60;99.90;;;10.87;81.28;102543.25;5035419;28;20500;-72
2023/03/04 10:05:41;;;;;;;5.63;4.10;;;10.60;99.90;;;10.71;80.63;102519.94;5035431;28;20054;-71
2023/03/04 10:08:38;;;;;;;5.45;3.70;;;10.70;99.90;;;11.11;80.66;102548.16;5035386;28;20045;-71
2023/03/04 10:11:14;;;;;;;7.97;4.00;;;10.80;99.90;;;11.32;80.00;102544.19;5035029;28;20041;-71
2023/03/04 10:13:55;;;;;;;8.00;4.05;;;11.10;99.90;;;11.21;79.54;102552.75;5035235;28;20053;-72
2023/03/04 10:16:30;;;;;;;6.05;3.50;;;11.00;99.90;;;10.74;79.92;102547.38;5035219;28;20046;-72
2023/03/04 10:19:16;;;;;;;9.18;4.10;;;10.70;99.90;;;10.85;79.92;102555.56;5035273;28;20041;-71
2023/03/04 10:21:48;;;;;;;7.53;3.63;;;10.60;99.90;;;10.47;80.12;102543.25;5035344;28;20095;-71
2023/03/04 10:24:21;;;;;;;7.50;4.03;;;10.30;99.90;;;10.70;79.23;102550.81;5034096;28;20073;-71
2023/03/04 10:26:54;;;;;;;9.90;4.65;;;10.40;99.90;;;10.65;78.77;102536.59;5035075;28;20056;-71
2023/03/04 10:29:25;;;;;;;8.32;3.63;;;10.50;99.90;;;10.47;78.93;102538.81;5035103;28;20033;-71